Time;durP1;ratioP1;P1;durP2;ratioP2;P2;SDS_P1;SDS_P2;PMS_P1;PMS_P2;Temp;Humidity;BMP_temperature;BMP_pressure;BME280_temperature;BME280_humidity;BME280_pressure;Samples;Min_cycle;Max_cycle;Signal;HPM_P1;HPM_P2
2022/10/22 00:01:40;;;;;;;9.68;4.93;;;;;;;22.73;100.00;100682.03;4996492;28;20107;-48
2022/10/22 00:04:06;;;;;;;16.87;5.80;;;;;;;22.85;100.00;100684.44;4997950;28;20034;-51
2022/10/22 00:06:32;;;;;;;21.33;6.43;;;;;;;22.88;100.00;100685.78;4993719;28;20041;-50
2022/10/22 00:08:58;;;;;;;11.60;4.60;;;;;;;23.05;100.00;100686.19;4995403;28;20038;-51
2022/10/22 00:11:24;;;;;;;16.17;6.50;;;;;;;22.86;100.00;100688.78;4991510;28;20283;-49
2022/10/22 00:13:50;;;;;;;19.88;6.13;;;;;;;22.63;100.00;100698.47;4994904;28;20042;-47
2022/10/22 00:16:15;;;;;;;7.17;5.03;;;;;;;23.02;100.00;100707.78;4993236;28;20035;-50
2022/10/22 00:18:40;;;;;;;9.93;5.73;;;;;;;22.48;100.00;100700.16;4995380;28;20295;-48
2022/10/22 00:21:07;;;;;;;12.38;7.05;;;;;;;22.66;100.00;100697.91;4996612;28;20041;-50
2022/10/22 00:23:33;;;;;;;10.90;5.93;;;;;;;22.51;100.00;100706.16;4993631;28;20023;-53
2022/10/22 00:25:59;;;;;;;14.10;5.93;;;;;;;22.30;100.00;100703.47;4992864;28;20049;-53
2022/10/22 00:28:25;;;;;;;11.60;5.45;;;;;;;22.55;100.00;100704.47;4996777;28;20039;-53
2022/10/22 00:30:58;;;;;;;11.80;5.50;;;;;;;22.55;100.00;100708.03;4995442;28;20042;-50
2022/10/22 00:33:25;;;;;;;12.83;5.77;;;;;;;22.44;100.00;100714.59;4993123;28;20102;-51
2022/10/22 00:35:51;;;;;;;14.77;5.90;;;;;;;22.43;100.00;100719.22;5014794;28;20265;-51
2022/10/22 00:38:16;;;;;;;13.73;5.63;;;;;;;22.90;100.00;100708.94;4999816;28;20348;-51
2022/10/22 00:40:42;;;;;;;14.65;5.70;;;;;;;22.85;100.00;100708.16;4999899;28;20053;-50
2022/10/22 00:43:16;;;;;;;14.95;5.68;;;;;;;23.12;100.00;100710.44;4996817;28;20054;-52
2022/10/22 00:45:41;;;;;;;12.33;5.27;;;;;;;22.78;100.00;100706.53;4998047;28;20039;-49
2022/10/22 00:48:24;;;;;;;15.63;6.35;;;;;;;22.92;100.00;100714.13;4999427;28;20299;-50
2022/10/22 00:50:54;;;;;;;13.53;6.13;;;;;;;29.27;100.00;100718.03;5000985;28;20055;-48
2022/10/22 00:53:23;;;;;;;12.23;5.90;;;;;;;30.86;78.12;100737.53;4997385;28;20296;-47
2022/10/22 00:55:52;;;;;;;9.53;5.10;;;;;;;30.83;73.87;100735.47;4999096;28;20294;-52
2022/10/22 00:58:21;;;;;;;10.67;5.23;;;;;;;28.38;74.38;100737.56;4997491;28;20272;-54
2022/10/22 01:00:48;;;;;;;15.73;5.90;;;;;;;23.56;100.00;100716.94;4996786;28;20263;-52
2022/10/22 01:03:13;;;;;;;11.52;5.30;;;;;;;22.63;100.00;100720.28;4998625;28;20260;-55
2022/10/22 01:05:44;;;;;;;11.50;5.53;;;;;;;22.49;100.00;100718.13;4998011;28;20053;-52
2022/10/22 01:08:38;;;;;;;12.87;6.07;;;;;;;23.15;100.00;100720.75;4997529;28;20023;-49
2022/10/22 01:11:14;;;;;;;20.83;6.47;;;;;;;22.94;100.00;100711.91;4998551;28;20284;-49
2022/10/22 01:13:55;;;;;;;20.00;6.30;;;;;;;22.70;100.00;100707.16;4995288;28;20274;-52
2022/10/22 01:16:38;;;;;;;11.40;6.10;;;;;;;22.63;100.00;100707.44;4996273;28;20277;-52
2022/10/22 01:19:23;;;;;;;11.30;6.83;;;;;;;23.09;100.00;100707.47;4999473;28;20280;-52
2022/10/22 01:21:57;;;;;;;16.17;6.47;;;;;;;22.66;100.00;100711.53;4995443;28;20264;-52
2022/10/22 01:24:34;;;;;;;16.80;6.50;;;;;;;22.60;100.00;100707.19;4993510;28;20277;-51
2022/10/22 01:27:23;;;;;;;15.10;6.90;;;;;;;22.52;100.00;100705.88;4997517;28;20276;-52
2022/10/22 01:29:55;;;;;;;18.23;6.67;;;;;;;22.03;100.00;100693.75;4995034;28;20253;-50
2022/10/22 01:32:24;;;;;;;13.30;6.13;;;;;;;22.03;100.00;100701.91;4997596;28;20273;-52
2022/10/22 01:35:06;;;;;;;14.57;7.00;;;;;;;21.88;100.00;100703.56;4995553;28;20291;-50
2022/10/22 01:37:37;;;;;;;13.77;6.07;;;;;;;21.84;100.00;100702.50;5000471;28;20277;-48
2022/10/22 01:40:04;;;;;;;15.13;6.50;;;;;;;22.26;100.00;100702.41;5001744;28;20281;-50
2022/10/22 01:42:30;;;;;;;15.10;6.10;;;;;;;22.62;100.00;100702.28;5004994;28;20276;-49
2022/10/22 01:44:55;;;;;;;17.03;6.37;;;;;;;22.68;100.00;100690.25;5002313;28;20291;-50
2022/10/22 01:47:25;;;;;;;14.00;6.97;;;;;;;22.44;100.00;100698.22;5005343;28;20092;-49
2022/10/22 01:50:13;;;;;;;14.63;6.70;;;;;;;22.81;100.00;100696.16;5004028;28;20041;-49
2022/10/22 01:53:40;;;;;;;13.60;6.75;;;;;;;22.58;100.00;100698.47;5005352;28;20273;-48
2022/10/22 01:56:30;;;;;;;21.50;6.97;;;;;;;22.44;100.00;100703.69;4994625;28;20110;-53
2022/10/22 01:58:59;;;;;;;12.63;5.90;;;;;;;22.07;100.00;100692.09;5019917;28;20285;-53
2022/10/22 02:01:35;;;;;;;12.13;6.93;;;;;;;22.24;100.00;100696.41;4999569;28;20303;-48
2022/10/22 02:04:07;;;;;;;19.67;7.73;;;;;;;22.14;100.00;100692.63;5004274;28;20264;-49
2022/10/22 02:06:33;;;;;;;17.00;6.50;;;;;;;22.02;100.00;100698.38;4999660;28;20268;-48
2022/10/22 02:09:01;;;;;;;20.38;7.45;;;;;;;21.91;100.00;100696.78;5003018;28;20280;-48
2022/10/22 02:11:27;;;;;;;10.30;6.63;;;;;;;21.74;100.00;100691.63;5002180;28;20038;-50
2022/10/22 02:13:58;;;;;;;13.35;6.95;;;;;;;21.96;100.00;100698.69;5006351;28;20272;-49
2022/10/22 02:16:36;;;;;;;16.03;7.13;;;;;;;21.96;100.00;100693.22;5023047;28;20102;-50
2022/10/22 02:19:08;;;;;;;19.27;6.90;;;;;;;21.82;100.00;100696.50;4998362;28;20295;-49
2022/10/22 02:21:34;;;;;;;17.17;6.77;;;;;;;21.87;100.00;100691.06;5000739;28;20291;-48
2022/10/22 02:24:00;;;;;;;12.00;6.53;;;;;;;22.02;100.00;100694.84;5000212;28;20264;-50
2022/10/22 02:26:34;;;;;;;13.30;7.00;;;;;;;21.78;100.00;100692.72;5002856;28;20038;-51
2022/10/22 02:29:07;;;;;;;11.43;6.47;;;;;;;22.35;100.00;100689.81;5000881;28;20034;-48
2022/10/22 02:31:38;;;;;;;20.30;7.33;;;;;;;28.78;90.89;100718.22;5004728;28;20275;-48
2022/10/22 02:34:13;;;;;;;16.03;7.03;;;;;;;29.08;87.91;100725.88;5000555;28;20265;-50
2022/10/22 02:36:41;;;;;;;19.37;7.43;;;;;;;30.01;79.74;100712.53;5003756;28;20272;-51
2022/10/22 02:39:08;;;;;;;18.60;6.63;;;;;;;29.71;80.20;100717.16;4998322;28;20305;-50
2022/10/22 02:41:36;;;;;;;12.27;6.60;;;;;;;29.56;81.51;100724.84;5000258;28;20348;-52
2022/10/22 02:44:07;;;;;;;15.50;6.83;;;;;;;22.88;100.00;100708.41;5013396;28;20266;-47
2022/10/22 02:46:34;;;;;;;17.00;6.50;;;;;;;22.43;100.00;100700.16;5001734;28;20268;-50
2022/10/22 02:48:59;;;;;;;24.05;7.50;;;;;;;24.40;100.00;100704.06;5009679;28;20268;-48
2022/10/22 02:51:24;;;;;;;23.70;6.90;;;;;;;29.76;85.45;100717.00;5000151;28;20062;-53
2022/10/22 02:53:50;;;;;;;14.93;6.80;;;;;;;29.47;83.08;100721.28;5010367;28;20041;-54
2022/10/22 02:56:16;;;;;;;21.50;6.97;;;;;;;30.42;75.90;100726.75;4996226;28;20060;-51
2022/10/22 02:58:42;;;;;;;19.02;6.47;;;;;;;32.33;65.90;100742.22;5003985;28;20045;-50
2022/10/22 03:01:07;;;;;;;15.90;7.30;;;;;;;31.43;67.95;100740.00;4998323;28;20042;-50
2022/10/22 03:03:33;;;;;;;17.73;7.32;;;;;;;31.83;65.93;100738.59;4997855;28;20122;-48
2022/10/22 03:05:58;;;;;;;17.05;6.85;;;;;;;23.51;100.00;100719.69;4999206;28;20046;-50
2022/10/22 03:08:24;;;;;;;13.38;6.82;;;;;;;22.12;100.00;100710.34;5005858;28;20039;-51
2022/10/22 03:10:49;;;;;;;18.73;7.10;;;;;;;21.96;100.00;100712.28;5000972;28;20054;-47
2022/10/22 03:13:15;;;;;;;14.55;7.45;;;;;;;28.74;100.00;100729.03;4992938;28;20030;-53
2022/10/22 03:15:40;;;;;;;27.67;7.20;;;;;;;32.04;69.31;100741.25;5002558;28;20066;-50
2022/10/22 03:18:05;;;;;;;18.33;7.00;;;;;;;32.28;67.18;100734.94;4997829;28;20066;-47
2022/10/22 03:20:31;;;;;;;23.80;6.20;;;;;;;30.96;69.33;100743.78;5008415;28;20045;-47
2022/10/22 03:22:57;;;;;;;18.10;6.97;;;;;;;27.94;85.85;100735.41;5008981;28;20059;-50
2022/10/22 03:25:25;;;;;;;13.30;5.72;;;;;;;29.13;77.52;100747.72;5000343;28;20043;-49
2022/10/22 03:27:59;;;;;;;19.53;6.80;;;;;;;28.74;79.98;100745.53;5000863;28;20031;-51
2022/10/22 03:30:25;;;;;;;27.53;7.13;;;;;;;30.15;71.70;100742.66;4998659;28;20264;-48
2022/10/22 03:32:50;;;;;;;18.30;6.32;;;;;;;31.47;67.51;100752.75;4992405;28;20280;-49
2022/10/22 03:35:16;;;;;;;13.38;6.05;;;;;;;29.29;79.82;100751.56;5002840;28;20037;-49
2022/10/22 03:37:41;;;;;;;14.55;6.70;;;;;;;27.39;86.75;100744.75;5004205;28;20066;-52
2022/10/22 03:40:08;;;;;;;24.15;7.47;;;;;;;28.22;83.25;100742.69;5001229;28;20039;-50
2022/10/22 03:42:34;;;;;;;15.80;6.57;;;;;;;33.08;66.80;100765.03;5007317;28;20034;-49
2022/10/22 03:44:59;;;;;;;13.07;6.43;;;;;;;30.25;68.25;100752.50;5006205;28;20279;-52
2022/10/22 03:47:25;;;;;;;18.80;6.47;;;;;;;29.00;75.82;100747.53;5010844;28;20066;-47
2022/10/22 03:49:51;;;;;;;12.77;6.95;;;;;;;27.07;88.20;100752.13;5009246;28;20042;-50
2022/10/22 03:52:17;;;;;;;25.73;7.63;;;;;;;28.67;79.64;100761.72;5008133;28;20032;-48
2022/10/22 03:54:43;;;;;;;17.63;6.88;;;;;;;28.81;83.58;100763.53;4999235;28;20071;-51
2022/10/22 03:57:09;;;;;;;14.87;6.27;;;;;;;28.00;84.27;100758.09;5007808;28;20042;-48
2022/10/22 03:59:41;;;;;;;16.00;7.68;;;;;;;29.86;76.94;100769.00;4999536;28;20287;-49
2022/10/22 04:02:07;;;;;;;41.63;17.50;;;;;;;28.71;80.39;100765.47;5000860;28;20098;-48
2022/10/22 04:04:33;;;;;;;33.33;17.05;;;;;;;28.14;82.49;100764.31;5006696;28;20351;-48
2022/10/22 04:06:58;;;;;;;17.70;9.60;;;;;;;28.35;80.96;100771.97;5001823;28;20064;-49
2022/10/22 04:09:24;;;;;;;17.10;8.23;;;;;;;28.84;80.23;100765.69;5009898;28;20280;-50
2022/10/22 04:11:49;;;;;;;17.45;7.82;;;;;;;29.86;70.85;100773.69;4999700;28;20281;-50
2022/10/22 04:14:15;;;;;;;15.77;7.20;;;;;;;28.84;78.44;100773.94;5006515;28;20038;-49
2022/10/22 04:16:41;;;;;;;21.95;8.25;;;;;;;29.11;79.88;100772.00;5011445;28;20037;-52
2022/10/22 04:19:07;;;;;;;16.50;6.90;;;;;;;28.32;82.64;100761.63;5001886;28;20098;-53
2022/10/22 04:21:34;;;;;;;16.20;7.80;;;;;;;28.88;79.45;100766.66;4997125;28;20034;-48
2022/10/22 04:24:00;;;;;;;17.87;6.90;;;;;;;29.14;74.69;100774.91;5006449;28;20035;-48
2022/10/22 04:26:26;;;;;;;16.88;6.72;;;;;;;29.28;82.22;100771.97;5008223;28;20269;-49
2022/10/22 04:28:52;;;;;;;17.33;5.88;;;;;;;28.26;81.92;100774.72;4996528;28;20038;-49
2022/10/22 04:31:21;;;;;;;20.08;7.38;;;;;;;27.63;87.81;100766.44;5010686;28;20061;-47
2022/10/22 04:33:51;;;;;;;20.97;7.30;;;;;;;27.05;92.15;100764.22;5000806;28;20065;-48
2022/10/22 04:36:18;;;;;;;16.73;7.03;;;;;;;26.63;96.36;100767.00;4999887;28;20289;-52
2022/10/22 04:38:46;;;;;;;19.43;6.60;;;;;;;25.80;100.00;100755.97;4997042;28;20288;-52
2022/10/22 04:41:15;;;;;;;13.47;6.67;;;;;;;26.10;100.00;100760.09;4998686;28;20265;-51
2022/10/22 04:43:41;;;;;;;13.20;7.03;;;;;;;26.51;98.12;100763.16;5005733;28;20276;-56
2022/10/22 04:46:09;;;;;;;22.20;7.07;;;;;;;26.13;100.00;100764.97;5000141;28;20303;-48
2022/10/22 04:48:37;;;;;;;22.27;7.20;;;;;;;25.91;100.00;100763.72;5005885;28;20047;-48
2022/10/22 04:51:04;;;;;;;20.67;7.73;;;;;;;25.68;100.00;100761.94;4998641;28;20311;-53
2022/10/22 04:53:29;;;;;;;21.73;6.53;;;;;;;25.67;100.00;100755.63;5004605;28;20294;-51
2022/10/22 04:56:06;;;;;;;22.77;6.10;;;;;;;25.83;100.00;100767.13;5015474;28;20293;-52
2022/10/22 04:58:31;;;;;;;16.70;6.85;;;;;;;25.78;100.00;100764.47;5004885;28;20347;-51
2022/10/22 05:00:57;;;;;;;16.92;6.75;;;;;;;27.98;100.00;100779.56;5011014;28;20046;-51
2022/10/22 05:03:24;;;;;;;18.80;6.88;;;;;;;26.33;100.00;100776.69;5001604;28;20057;-53
2022/10/22 05:05:49;;;;;;;23.43;6.33;;;;;;;29.93;87.58;100784.22;5000675;28;20039;-51
2022/10/22 05:08:15;;;;;;;17.63;7.40;;;;;;;27.08;96.80;100781.19;5000523;28;20270;-48
2022/10/22 05:10:40;;;;;;;23.10;6.60;;;;;;;28.90;87.86;100789.94;4993961;28;20046;-51
2022/10/22 05:13:06;;;;;;;19.95;5.85;;;;;;;26.00;100.00;100779.44;5000797;28;20034;-50
2022/10/22 05:15:32;;;;;;;15.27;6.40;;;;;;;26.70;100.00;100783.03;4995071;28;20105;-50
2022/10/22 05:17:57;;;;;;;;;;;;;;;26.45;100.00;100776.16;5017639;28;20038;-48
2022/10/22 05:20:23;;;;;;;24.53;6.80;;;;;;;26.84;99.24;100776.72;5005552;28;19926;-47
2022/10/22 05:22:48;;;;;;;17.08;5.75;;;;;;;26.35;100.00;100785.41;5007010;28;20058;-48
2022/10/22 05:25:14;;;;;;;17.10;7.15;;;;;;;26.11;100.00;100783.63;5001093;28;20038;-51
2022/10/22 05:27:39;;;;;;;25.40;6.55;;;;;;;26.71;100.00;100787.41;5003830;28;20132;-51
2022/10/22 05:30:05;;;;;;;21.50;7.30;;;;;;;26.60;100.00;100781.31;5007333;28;20050;-52
2022/10/22 05:32:33;;;;;;;16.08;6.45;;;;;;;26.70;98.69;100785.78;4999415;28;20084;-50
2022/10/22 05:34:58;;;;;;;18.27;6.33;;;;;;;27.29;93.46;100789.75;5005451;28;20133;-52
2022/10/22 05:37:24;;;;;;;22.47;5.77;;;;;;;26.73;99.09;100792.59;5011733;28;20272;-51
2022/10/22 05:39:49;;;;;;;15.65;6.05;;;;;;;25.82;100.00;100790.16;5008013;28;20026;-48
2022/10/22 05:42:15;;;;;;;20.08;6.75;;;;;;;25.46;100.00;100790.72;5011460;28;20065;-51
2022/10/22 05:44:40;;;;;;;21.27;5.80;;;;;;;26.11;100.00;100793.75;4999750;28;20034;-49
2022/10/22 05:47:06;;;;;;;20.00;6.28;;;;;;;26.33;100.00;100790.38;5009513;28;20058;-49
2022/10/22 05:49:31;;;;;;;22.10;6.35;;;;;;;25.86;100.00;100799.41;4999435;28;20026;-48
2022/10/22 05:51:57;;;;;;;18.02;5.47;;;;;;;26.31;100.00;100792.63;5012877;28;20076;-52
2022/10/22 05:54:22;;;;;;;16.83;6.03;;;;;;;26.17;100.00;100798.88;5011844;28;20038;-51
2022/10/22 05:56:48;;;;;;;21.10;6.43;;;;;;;25.42;100.00;100800.66;5001223;28;20066;-54
2022/10/22 05:59:13;;;;;;;30.17;6.23;;;;;;;28.07;100.00;100810.66;5008899;28;20073;-49
2022/10/22 06:01:39;;;;;;;22.33;6.07;;;;;;;25.95;100.00;100806.94;5000833;28;20052;-53
2022/10/22 06:04:08;;;;;;;22.67;6.73;;;;;;;25.27;100.00;100813.44;5030103;28;20053;-54
2022/10/22 06:06:46;;;;;;;17.40;5.60;;;;;;;26.94;100.00;100816.88;5006103;28;20276;-53
2022/10/22 06:09:17;;;;;;;19.87;6.33;;;;;;;24.06;100.00;100812.34;5009187;28;20264;-55
2022/10/22 06:11:43;;;;;;;23.33;5.90;;;;;;;25.42;100.00;100808.84;5002291;28;20283;-51
2022/10/22 06:14:10;;;;;;;14.43;5.75;;;;;;;25.63;100.00;100815.66;5006947;28;20275;-49
2022/10/22 06:16:36;;;;;;;22.87;5.90;;;;;;;25.52;100.00;100822.41;5000339;28;20043;-49
2022/10/22 06:19:02;;;;;;;19.83;5.78;;;;;;;25.85;100.00;100824.34;5010711;28;20288;-51
2022/10/22 06:21:28;;;;;;;15.80;6.47;;;;;;;25.99;100.00;100825.22;5013792;28;20041;-53
2022/10/22 06:23:57;;;;;;;;;;;;;;;25.67;100.00;100834.25;5001784;28;20036;-52
2022/10/22 06:26:22;;;;;;;15.10;5.47;;;;;;;25.78;100.00;100846.63;5008361;28;19959;-48
2022/10/22 06:28:48;;;;;;;23.40;5.75;;;;;;;25.95;100.00;100842.53;5004820;28;20261;-53
2022/10/22 06:31:14;;;;;;;14.35;6.13;;;;;;;26.37;100.00;100848.97;5011703;28;20035;-49
2022/10/22 06:33:42;;;;;;;17.52;5.55;;;;;;;26.16;100.00;100849.31;5010387;28;20032;-51
2022/10/22 06:36:11;;;;;;;22.10;7.23;;;;;;;26.26;100.00;100844.78;5009753;28;20038;-49
2022/10/22 06:38:38;;;;;;;19.50;6.30;;;;;;;26.21;100.00;100848.44;5008158;28;20288;-53
2022/10/22 06:41:06;;;;;;;16.75;5.82;;;;;;;25.54;100.00;100868.66;4995621;28;20335;-49
2022/10/22 06:43:31;;;;;;;19.53;5.40;;;;;;;25.82;100.00;100864.09;5004886;28;20069;-49
2022/10/22 06:46:02;;;;;;;16.20;5.72;;;;;;;25.32;100.00;100868.09;5000027;28;20265;-55
2022/10/22 06:48:27;;;;;;;13.00;5.13;;;;;;;25.57;100.00;100879.81;5010221;28;20046;-52
2022/10/22 06:50:53;;;;;;;15.27;4.72;;;;;;;24.05;100.00;100878.22;5005540;28;20333;-49
2022/10/22 06:53:19;;;;;;;18.13;6.68;;;;;;;25.63;100.00;100878.66;5000640;28;20038;-52
2022/10/22 06:55:44;;;;;;;19.45;5.60;;;;;;;26.35;100.00;100886.84;5005625;28;20047;-52
2022/10/22 06:58:09;;;;;;;10.50;4.10;;;;;;;26.45;100.00;100891.31;5008792;28;20034;-51
2022/10/22 07:00:35;;;;;;;9.98;3.70;;;;;;;27.27;97.18;100894.38;5000460;28;20292;-50
2022/10/22 07:03:00;;;;;;;12.85;4.15;;;;;;;26.85;100.00;100896.34;5001036;28;20062;-54
2022/10/22 07:05:26;;;;;;;21.52;5.30;;;;;;;26.80;100.00;100897.22;5005948;28;20057;-50
2022/10/22 07:07:51;;;;;;;13.23;4.05;;;;;;;26.74;99.80;100899.25;5002929;28;20154;-50
2022/10/22 07:10:17;;;;;;;13.25;3.92;;;;;;;26.09;100.00;100911.09;5000529;28;20056;-50
2022/10/22 07:12:42;;;;;;;13.25;3.92;;;;;;;26.37;100.00;100920.25;5001258;28;20081;-52
2022/10/22 07:15:08;;;;;;;20.67;3.83;;;;;;;26.90;99.72;100912.69;5001307;28;20058;-48
2022/10/22 07:17:33;;;;;;;18.17;3.72;;;;;;;25.77;100.00;100918.97;5008108;28;20339;-51
2022/10/22 07:19:59;;;;;;;17.13;3.58;;;;;;;26.40;100.00;100916.06;4999311;28;20039;-52
2022/10/22 07:22:25;;;;;;;12.77;3.22;;;;;;;27.89;98.46;100920.47;5001618;28;20034;-50
2022/10/22 07:24:51;;;;;;;15.60;3.33;;;;;;;26.79;100.00;100911.25;5006442;28;20042;-52
2022/10/22 07:27:16;;;;;;;11.30;2.77;;;;;;;26.44;100.00;100912.44;5002808;28;20090;-50
2022/10/22 07:29:42;;;;;;;16.05;3.80;;;;;;;26.52;100.00;100915.56;5008928;28;20036;-49
2022/10/22 07:32:07;;;;;;;24.23;3.90;;;;;;;26.18;100.00;100915.59;5004780;28;20057;-52
2022/10/22 07:34:33;;;;;;;13.57;2.73;;;;;;;25.87;100.00;100929.78;5001215;28;20039;-52
2022/10/22 07:36:59;;;;;;;11.30;3.17;;;;;;;25.95;100.00;100933.78;4997604;28;20042;-48
2022/10/22 07:39:24;;;;;;;16.33;3.27;;;;;;;25.94;100.00;100932.13;5000292;28;20097;-52
2022/10/22 07:41:51;;;;;;;15.98;2.97;;;;;;;26.83;100.00;100928.72;5003066;28;20092;-51
2022/10/22 07:44:16;;;;;;;11.63;2.83;;;;;;;26.29;100.00;100940.09;5003121;28;20035;-49
2022/10/22 07:46:42;;;;;;;10.07;2.80;;;;;;;26.38;100.00;100935.56;5002943;28;20045;-50
2022/10/22 07:49:07;;;;;;;18.13;4.22;;;;;;;27.16;98.98;100953.34;5005472;28;20046;-50
2022/10/22 07:51:33;;;;;;;15.63;2.73;;;;;;;26.89;100.00;100950.31;5003540;28;20057;-49
2022/10/22 07:53:58;;;;;;;15.20;3.88;;;;;;;26.94;100.00;100951.31;5010726;28;20041;-49
2022/10/22 07:56:24;;;;;;;12.30;3.08;;;;;;;27.29;94.90;100955.28;5005977;28;20049;-49
2022/10/22 07:58:49;;;;;;;12.88;4.40;;;;;;;26.75;100.00;100961.22;5009764;28;20106;-49
2022/10/22 08:01:15;;;;;;;13.65;3.85;;;;;;;26.03;100.00;100968.72;5002021;28;20046;-52
2022/10/22 08:03:41;;;;;;;17.63;5.70;;;;;;;29.45;86.29;100977.78;5000363;28;20109;-50
2022/10/22 08:06:09;;;;;;;13.10;3.53;;;;;;;30.92;78.07;101003.19;4999238;28;20042;-51
2022/10/22 08:08:34;;;;;;;10.93;3.80;;;;;;;27.10;92.62;100974.59;5002188;28;20034;-50
2022/10/22 08:11:00;;;;;;;9.82;3.17;;;;;;;26.73;97.82;100981.84;5001660;28;20047;-48
2022/10/22 08:13:29;;;;;;;18.33;4.13;;;;;;;27.61;94.72;100978.25;5001946;28;20038;-49
2022/10/22 08:15:56;;;;;;;15.17;3.47;;;;;;;27.38;94.01;100991.06;5003347;28;20061;-50
2022/10/22 08:18:21;;;;;;;12.90;3.03;;;;;;;27.60;94.48;100982.09;5004601;28;20034;-52
2022/10/22 08:20:47;;;;;;;13.25;3.63;;;;;;;28.71;87.42;101002.06;5003408;28;20049;-49
2022/10/22 08:23:12;;;;;;;12.33;2.27;;;;;;;28.57;86.59;101006.81;5001860;28;20035;-53
2022/10/22 08:25:38;;;;;;;15.18;3.22;;;;;;;28.30;86.89;101000.34;4994562;28;20039;-51
2022/10/22 08:28:03;;;;;;;13.48;2.75;;;;;;;29.01;82.90;101010.66;4986252;28;20031;-53
2022/10/22 08:30:29;;;;;;;11.45;2.42;;;;;;;27.70;89.40;101005.81;4996179;28;20027;-52
2022/10/22 08:32:55;;;;;;;10.38;2.28;;;;;;;27.52;92.57;101001.25;4986418;28;20041;-50
2022/10/22 08:35:21;;;;;;;15.48;3.30;;;;;;;26.91;95.49;101004.88;4998650;28;20103;-49
2022/10/22 08:37:46;;;;;;;19.80;4.28;;;;;;;26.72;98.11;101013.16;5011430;28;20036;-50
2022/10/22 08:40:33;;;;;;;14.30;3.23;;;;;;;27.00;98.00;101025.03;4998846;28;20076;-50
2022/10/22 08:43:05;;;;;;;;;;;;;;;27.53;94.96;101017.44;5002954;28;20042;-50
2022/10/22 08:46:08;;;;;;;20.93;6.47;;;;;;;26.22;100.00;101024.63;5002051;28;19918;-50
2022/10/22 08:48:48;;;;;;;19.43;6.90;;;;;;;25.83;100.00;101029.25;5003865;28;20389;-50
2022/10/22 08:51:18;;;;;;;17.80;6.90;;;;;;;26.88;100.00;101027.44;5002288;28;20077;-50
2022/10/22 08:54:21;;;;;;;19.03;5.03;;;;;;;27.75;93.04;101037.84;5004872;28;20037;-51
2022/10/22 08:57:04;;;;;;;18.30;4.73;;;;;;;27.77;92.29;101041.91;5009376;28;20035;-53
2022/10/22 09:00:01;;;;;;;11.63;2.77;;;;;;;27.63;93.22;101039.16;5000572;28;20064;-53
2022/10/22 09:02:37;;;;;;;12.73;3.47;;;;;;;27.75;91.01;101043.34;5005644;28;20046;-53
2022/10/22 09:05:10;;;;;;;8.38;3.88;;;;;;;28.06;90.31;101048.16;5012972;28;20056;-54
2022/10/22 09:07:40;;;;;;;13.70;4.17;;;;;;;28.18;86.95;101047.63;5001554;28;20027;-51
2022/10/22 09:10:08;;;;;;;11.97;4.13;;;;;;;28.17;89.33;101057.00;4997740;28;20026;-53
2022/10/22 09:12:33;;;;;;;10.23;3.23;;;;;;;27.73;90.88;101057.38;5002343;28;20124;-53
2022/10/22 09:14:59;;;;;;;15.70;3.95;;;;;;;28.91;85.27;101069.53;5000787;28;20039;-52
2022/10/22 09:17:34;;;;;;;11.40;3.10;;;;;;;28.38;87.31;101073.03;5000294;28;20076;-51
2022/10/22 09:20:12;;;;;;;14.63;3.23;;;;;;;29.59;77.40;101074.06;5001593;28;20030;-54
2022/10/22 09:22:43;;;;;;;15.83;2.90;;;;;;;27.67;88.62;101061.34;5002209;28;20088;-52
2022/10/22 09:25:22;;;;;;;12.77;2.60;;;;;;;28.05;88.43;101071.25;5007554;28;20048;-51
2022/10/22 09:27:49;;;;;;;16.50;2.73;;;;;;;27.75;91.42;101073.56;5000751;28;20061;-55
2022/10/22 09:30:21;;;;;;;19.83;3.33;;;;;;;29.26;86.95;101084.63;4990181;28;20046;-51
2022/10/22 09:32:58;;;;;;;20.40;3.57;;;;;;;28.87;85.68;101079.56;4992630;28;20031;-53
2022/10/22 09:35:24;;;;;;;14.60;2.73;;;;;;;28.74;85.01;101077.69;4986335;28;20055;-53
2022/10/22 09:37:52;;;;;;;11.10;2.72;;;;;;;28.50;85.85;101092.56;4988074;28;20035;-51
2022/10/22 09:40:18;;;;;;;16.07;2.27;;;;;;;28.15;87.49;101078.47;4989011;28;20057;-53
2022/10/22 09:42:45;;;;;;;18.33;3.20;;;;;;;28.62;85.62;101090.03;4986361;28;20035;-50
2022/10/22 09:45:15;;;;;;;;;;;;;;;28.79;85.69;101094.09;5000639;28;20052;-51
2022/10/22 09:47:40;;;;;;;12.43;2.33;;;;;;;28.69;84.96;101103.38;4991014;28;19985;-54
2022/10/22 09:50:28;;;;;;;16.02;2.72;;;;;;;28.66;84.92;101105.94;5004550;28;20046;-50
2022/10/22 09:53:04;;;;;;;10.93;3.40;;;;;;;29.40;83.24;101117.56;5015476;28;20036;-53
2022/10/22 09:55:30;;;;;;;10.70;2.20;;;;;;;28.26;87.64;101107.41;4998155;28;20022;-55
2022/10/22 09:57:58;;;;;;;15.70;3.47;;;;;;;28.42;87.15;101112.53;5003201;28;20042;-52
2022/10/22 10:00:25;;;;;;;12.77;3.03;;;;;;;28.23;88.90;101107.19;5001988;28;20031;-49
2022/10/22 10:02:57;;;;;;;13.33;2.33;;;;;;;30.15;82.38;101123.16;5012790;28;20030;-51
2022/10/22 10:05:32;;;;;;;16.67;3.20;;;;;;;28.37;85.32;101120.91;5001881;28;20034;-52
2022/10/22 10:08:04;;;;;;;12.93;2.80;;;;;;;29.18;83.22;101127.50;5005469;28;20064;-49
2022/10/22 10:10:40;;;;;;;16.10;3.63;;;;;;;28.93;85.23;101131.72;5003880;28;20615;-53
2022/10/22 10:13:26;;;;;;;12.10;3.70;;;;;;;28.93;84.21;101126.19;5008033;28;20030;-50
2022/10/22 10:15:56;;;;;;;12.93;2.78;;;;;;;29.15;83.32;101142.69;4997593;28;20050;-49
2022/10/22 10:18:52;;;;;;;9.30;2.20;;;;;;;29.82;79.98;101142.03;5006141;28;20058;-48
2022/10/22 10:21:28;;;;;;;11.57;2.00;;;;;;;31.63;72.86;101150.09;5002326;28;20043;-51
2022/10/22 10:24:20;;;;;;;10.47;2.90;;;;;;;33.08;63.86;101146.47;5003082;28;20035;-51
2022/10/22 10:26:57;;;;;;;14.17;3.00;;;;;;;33.53;60.87;101155.91;4977752;28;20057;-49
2022/10/22 10:29:25;;;;;;;12.60;3.00;;;;;;;32.22;63.47;101153.22;5002787;28;20042;-51
2022/10/22 10:32:29;;;;;;;11.33;2.43;;;;;;;31.54;66.99;101158.44;5008480;28;20066;-51
2022/10/22 10:35:04;;;;;;;16.70;3.10;;;;;;;32.22;65.58;101158.75;4998696;28;20031;-54
2022/10/22 10:38:01;;;;;;;9.63;2.30;;;;;;;33.52;58.98;101177.28;5001174;28;20122;-50
2022/10/22 10:40:37;;;;;;;15.10;2.80;;;;;;;34.68;57.27;101175.31;5001421;28;20068;-52
2022/10/22 10:43:08;;;;;;;7.53;2.33;;;;;;;35.15;54.39;101198.03;4994571;28;20047;-54
2022/10/22 10:46:03;;;;;;;10.30;2.38;;;;;;;33.56;58.19;101172.69;4988884;28;20060;-54
2022/10/22 10:48:47;;;;;;;15.20;3.22;;;;;;;35.14;54.03;101180.53;4993128;28;20062;-51
2022/10/22 10:51:28;;;;;;;8.77;2.10;;;;;;;34.43;55.24;101185.66;5002182;28;20042;-54
2022/10/22 10:54:11;;;;;;;13.68;2.45;;;;;;;33.85;54.19;101189.44;5000904;28;20041;-51
2022/10/22 10:56:56;;;;;;;11.02;2.50;;;;;;;33.72;55.66;101170.00;4999163;28;20031;-53
2022/10/22 10:59:31;;;;;;;13.30;2.67;;;;;;;33.53;56.07;101175.31;4999648;28;20039;-51
2022/10/22 11:02:08;;;;;;;9.95;2.38;;;;;;;33.40;56.05;101182.78;4999136;28;20034;-50
2022/10/22 11:04:55;;;;;;;11.37;2.80;;;;;;;31.74;59.37;101178.19;5012728;28;20061;-52
2022/10/22 11:07:27;;;;;;;12.63;2.20;;;;;;;31.67;60.02;101172.38;5000219;28;20039;-52
2022/10/22 11:10:02;;;;;;;13.77;2.40;;;;;;;31.93;59.09;101177.00;5001132;28;20035;-53
2022/10/22 11:12:40;;;;;;;12.37;2.37;;;;;;;33.93;55.75;101179.38;4998197;28;20031;-54
2022/10/22 11:15:30;;;;;;;10.60;1.90;;;;;;;33.23;55.32;101184.63;4999111;28;20056;-50
2022/10/22 11:18:03;;;;;;;13.77;2.03;;;;;;;33.53;55.53;101181.69;5001517;28;20034;-49
2022/10/22 11:20:38;;;;;;;8.27;1.70;;;;;;;33.44;55.67;101190.09;4997106;28;20038;-49
2022/10/22 11:23:13;;;;;;;11.20;2.27;;;;;;;31.32;61.19;101187.91;4998201;28;20086;-50
2022/10/22 11:25:45;;;;;;;16.47;2.23;;;;;;;31.84;58.38;101193.63;4996915;28;20041;-49
2022/10/22 11:28:23;;;;;;;15.70;2.47;;;;;;;30.70;58.95;101181.66;5001083;28;20043;-52